sensor_id;sensor_type;location;lat;lon;timestamp;temperature;humidity
22633;DHT22;11483;55.828;37.488;2022-12-07T00:00:54;-5.30;96.40
22633;DHT22;11483;55.828;37.488;2022-12-07T00:03:20;-5.30;96.40
22633;DHT22;11483;55.828;37.488;2022-12-07T00:05:46;-5.20;96.60
22633;DHT22;11483;55.828;37.488;2022-12-07T00:08:12;-5.20;96.40
22633;DHT22;11483;55.828;37.488;2022-12-07T00:10:38;-5.20;96.30
22633;DHT22;11483;55.828;37.488;2022-12-07T00:13:03;-5.20;96.20
22633;DHT22;11483;55.828;37.488;2022-12-07T00:15:29;-5.20;96.20
22633;DHT22;11483;55.828;37.488;2022-12-07T00:17:55;-5.20;96.20
22633;DHT22;11483;55.828;37.488;2022-12-07T00:20:21;-5.30;96.10
22633;DHT22;11483;55.828;37.488;2022-12-07T00:22:47;-5.30;96.20
22633;DHT22;11483;55.828;37.488;2022-12-07T00:25:13;-5.20;96.00
22633;DHT22;11483;55.828;37.488;2022-12-07T00:27:38;-5.30;96.10
22633;DHT22;11483;55.828;37.488;2022-12-07T00:30:05;-5.30;96.10
22633;DHT22;11483;55.828;37.488;2022-12-07T00:32:31;-5.20;96.10
22633;DHT22;11483;55.828;37.488;2022-12-07T00:34:57;-5.30;96.10
22633;DHT22;11483;55.828;37.488;2022-12-07T00:37:22;-5.30;96.00
22633;DHT22;11483;55.828;37.488;2022-12-07T00:39:48;-5.30;96.30
22633;DHT22;11483;55.828;37.488;2022-12-07T00:42:14;-5.20;96.30
22633;DHT22;11483;55.828;37.488;2022-12-07T00:44:40;-5.30;96.30
22633;DHT22;11483;55.828;37.488;2022-12-07T00:47:06;-5.30;96.40
22633;DHT22;11483;55.828;37.488;2022-12-07T00:49:31;-5.30;96.50
22633;DHT22;11483;55.828;37.488;2022-12-07T00:51:57;-5.30;96.50
22633;DHT22;11483;55.828;37.488;2022-12-07T00:54:23;-5.40;96.50
22633;DHT22;11483;55.828;37.488;2022-12-07T00:56:49;-5.40;96.60
22633;DHT22;11483;55.828;37.488;2022-12-07T00:59:15;-5.40;96.20
22633;DHT22;11483;55.828;37.488;2022-12-07T01:01:41;-5.40;96.40
22633;DHT22;11483;55.828;37.488;2022-12-07T01:04:07;-5.40;96.50
22633;DHT22;11483;55.828;37.488;2022-12-07T01:06:33;-5.40;96.50
22633;DHT22;11483;55.828;37.488;2022-12-07T01:08:59;-5.40;96.40
22633;DHT22;11483;55.828;37.488;2022-12-07T01:11:27;-5.40;96.20
22633;DHT22;11483;55.828;37.488;2022-12-07T01:13:55;-5.40;96.40
22633;DHT22;11483;55.828;37.488;2022-12-07T01:16:22;-5.50;96.60
22633;DHT22;11483;55.828;37.488;2022-12-07T01:18:50;-5.60;96.50
22633;DHT22;11483;55.828;37.488;2022-12-07T01:21:19;-5.50;96.80
22633;DHT22;11483;55.828;37.488;2022-12-07T01:23:46;-5.50;96.80
22633;DHT22;11483;55.828;37.488;2022-12-07T01:26:15;-5.60;97.00
22633;DHT22;11483;55.828;37.488;2022-12-07T01:28:41;-5.60;97.00
22633;DHT22;11483;55.828;37.488;2022-12-07T01:31:10;-5.70;97.30
22633;DHT22;11483;55.828;37.488;2022-12-07T01:33:37;-5.70;97.30
22633;DHT22;11483;55.828;37.488;2022-12-07T01:38:47;-5.70;97.30
22633;DHT22;11483;55.828;37.488;2022-12-07T01:41:15;-5.70;97.40
22633;DHT22;11483;55.828;37.488;2022-12-07T01:47:01;-5.70;97.00
22633;DHT22;11483;55.828;37.488;2022-12-07T01:49:53;-5.70;97.10
22633;DHT22;11483;55.828;37.488;2022-12-07T01:54:57;-5.80;97.10
22633;DHT22;11483;55.828;37.488;2022-12-07T01:57:24;-5.70;97.10
22633;DHT22;11483;55.828;37.488;2022-12-07T01:59:51;-5.80;97.10
22633;DHT22;11483;55.828;37.488;2022-12-07T02:02:25;-5.80;97.20
22633;DHT22;11483;55.828;37.488;2022-12-07T02:04:53;-5.80;97.30
22633;DHT22;11483;55.828;37.488;2022-12-07T02:07:20;-5.80;97.30
22633;DHT22;11483;55.828;37.488;2022-12-07T02:09:48;-5.80;97.20
22633;DHT22;11483;55.828;37.488;2022-12-07T02:12:13;-5.80;97.10
22633;DHT22;11483;55.828;37.488;2022-12-07T02:14:40;-5.80;97.10
22633;DHT22;11483;55.828;37.488;2022-12-07T02:17:14;-5.80;97.00
22633;DHT22;11483;55.828;37.488;2022-12-07T02:20:14;-5.80;97.00
22633;DHT22;11483;55.828;37.488;2022-12-07T02:28:33;-5.80;96.90
22633;DHT22;11483;55.828;37.488;2022-12-07T02:31:17;-5.80;97.00
22633;DHT22;11483;55.828;37.488;2022-12-07T02:36:50;-5.70;96.70
22633;DHT22;11483;55.828;37.488;2022-12-07T02:39:31;-5.70;96.80
22633;DHT22;11483;55.828;37.488;2022-12-07T02:42:05;-5.80;96.90
22633;DHT22;11483;55.828;37.488;2022-12-07T02:44:33;-5.80;97.00
22633;DHT22;11483;55.828;37.488;2022-12-07T02:47:04;-5.80;97.00
22633;DHT22;11483;55.828;37.488;2022-12-07T02:49:31;-5.80;96.90
22633;DHT22;11483;55.828;37.488;2022-12-07T02:51:58;-5.70;96.90
22633;DHT22;11483;55.828;37.488;2022-12-07T02:54:23;-5.70;96.70
22633;DHT22;11483;55.828;37.488;2022-12-07T03:11:05;-5.70;96.90
22633;DHT22;11483;55.828;37.488;2022-12-07T03:16:19;-5.70;96.80
22633;DHT22;11483;55.828;37.488;2022-12-07T03:18:55;-5.70;96.60
22633;DHT22;11483;55.828;37.488;2022-12-07T03:21:28;-5.70;96.40
22633;DHT22;11483;55.828;37.488;2022-12-07T03:23:59;-5.70;96.50
22633;DHT22;11483;55.828;37.488;2022-12-07T03:26:36;-5.70;96.70
22633;DHT22;11483;55.828;37.488;2022-12-07T03:29:40;-5.70;96.70
22633;DHT22;11483;55.828;37.488;2022-12-07T03:32:23;-5.60;96.70
22633;DHT22;11483;55.828;37.488;2022-12-07T03:35:05;-5.60;96.60
22633;DHT22;11483;55.828;37.488;2022-12-07T03:37:51;-5.60;96.50
22633;DHT22;11483;55.828;37.488;2022-12-07T03:40:30;-5.60;96.60
22633;DHT22;11483;55.828;37.488;2022-12-07T03:43:00;-5.60;96.60
22633;DHT22;11483;55.828;37.488;2022-12-07T03:45:41;-5.60;96.70
22633;DHT22;11483;55.828;37.488;2022-12-07T03:48:35;-5.60;96.80
22633;DHT22;11483;55.828;37.488;2022-12-07T03:51:20;-5.60;96.90
22633;DHT22;11483;55.828;37.488;2022-12-07T03:53:57;-5.60;97.10
22633;DHT22;11483;55.828;37.488;2022-12-07T03:56:25;-5.60;97.30
22633;DHT22;11483;55.828;37.488;2022-12-07T03:58:53;-5.70;97.70
22633;DHT22;11483;55.828;37.488;2022-12-07T04:01:19;-5.80;97.90
22633;DHT22;11483;55.828;37.488;2022-12-07T04:03:45;-5.80;98.20
22633;DHT22;11483;55.828;37.488;2022-12-07T04:06:11;-5.80;98.50
22633;DHT22;11483;55.828;37.488;2022-12-07T04:08:37;-6.00;99.10
22633;DHT22;11483;55.828;37.488;2022-12-07T04:11:03;-6.10;99.70
22633;DHT22;11483;55.828;37.488;2022-12-07T04:13:28;-6.10;99.70
22633;DHT22;11483;55.828;37.488;2022-12-07T04:15:54;-6.10;99.90
22633;DHT22;11483;55.828;37.488;2022-12-07T04:18:20;-6.10;99.90
22633;DHT22;11483;55.828;37.488;2022-12-07T04:20:46;-6.20;99.90
22633;DHT22;11483;55.828;37.488;2022-12-07T04:23:12;-6.20;99.90
22633;DHT22;11483;55.828;37.488;2022-12-07T04:25:38;-6.30;99.90
22633;DHT22;11483;55.828;37.488;2022-12-07T04:28:04;-6.30;99.90
22633;DHT22;11483;55.828;37.488;2022-12-07T04:30:30;-6.30;99.90
22633;DHT22;11483;55.828;37.488;2022-12-07T04:32:56;-6.30;99.90
22633;DHT22;11483;55.828;37.488;2022-12-07T04:35:22;-6.30;99.90
22633;DHT22;11483;55.828;37.488;2022-12-07T04:37:48;-6.30;99.90
22633;DHT22;11483;55.828;37.488;2022-12-07T04:40:13;-6.40;99.90
22633;DHT22;11483;55.828;37.488;2022-12-07T04:42:39;-6.50;99.90
22633;DHT22;11483;55.828;37.488;2022-12-07T04:45:06;-6.50;99.90
22633;DHT22;11483;55.828;37.488;2022-12-07T04:47:32;-6.60;99.90
22633;DHT22;11483;55.828;37.488;2022-12-07T04:49:58;-6.60;99.90
22633;DHT22;11483;55.828;37.488;2022-12-07T04:52:24;-6.60;99.90
22633;DHT22;11483;55.828;37.488;2022-12-07T04:54:49;-6.70;99.90
22633;DHT22;11483;55.828;37.488;2022-12-07T04:57:15;-6.60;99.90
22633;DHT22;11483;55.828;37.488;2022-12-07T04:59:41;-6.70;99.90
22633;DHT22;11483;55.828;37.488;2022-12-07T05:02:07;-6.80;99.90
22633;DHT22;11483;55.828;37.488;2022-12-07T05:04:33;-6.70;99.90
22633;DHT22;11483;55.828;37.488;2022-12-07T05:06:59;-6.80;99.90
22633;DHT22;11483;55.828;37.488;2022-12-07T05:09:24;-6.80;99.90
22633;DHT22;11483;55.828;37.488;2022-12-07T05:11:50;-6.80;99.90
22633;DHT22;11483;55.828;37.488;2022-12-07T05:14:19;-6.80;99.90
22633;DHT22;11483;55.828;37.488;2022-12-07T05:16:47;-6.80;99.90
22633;DHT22;11483;55.828;37.488;2022-12-07T05:19:14;-6.80;99.90
22633;DHT22;11483;55.828;37.488;2022-12-07T05:21:40;-6.70;99.90
22633;DHT22;11483;55.828;37.488;2022-12-07T05:24:08;-6.70;99.90
22633;DHT22;11483;55.828;37.488;2022-12-07T05:26:34;-6.70;99.90
22633;DHT22;11483;55.828;37.488;2022-12-07T05:29:00;-6.70;99.90
22633;DHT22;11483;55.828;37.488;2022-12-07T05:31:26;-6.70;99.90
22633;DHT22;11483;55.828;37.488;2022-12-07T05:33:53;-6.80;99.90
22633;DHT22;11483;55.828;37.488;2022-12-07T05:36:19;-6.80;99.90
22633;DHT22;11483;55.828;37.488;2022-12-07T05:38:45;-6.80;99.90
22633;DHT22;11483;55.828;37.488;2022-12-07T05:41:15;-6.80;99.90
22633;DHT22;11483;55.828;37.488;2022-12-07T05:43:59;-6.80;99.90
22633;DHT22;11483;55.828;37.488;2022-12-07T05:46:25;-6.90;99.90
22633;DHT22;11483;55.828;37.488;2022-12-07T05:48:51;-6.90;99.90
22633;DHT22;11483;55.828;37.488;2022-12-07T05:51:17;-6.90;99.90
22633;DHT22;11483;55.828;37.488;2022-12-07T05:53:44;-6.90;99.90
22633;DHT22;11483;55.828;37.488;2022-12-07T05:56:10;-6.80;99.90
22633;DHT22;11483;55.828;37.488;2022-12-07T05:58:36;-6.90;99.90
22633;DHT22;11483;55.828;37.488;2022-12-07T06:01:20;-6.90;99.90
22633;DHT22;11483;55.828;37.488;2022-12-07T06:03:46;-6.80;99.90
22633;DHT22;11483;55.828;37.488;2022-12-07T06:06:12;-6.80;99.90
22633;DHT22;11483;55.828;37.488;2022-12-07T06:08:38;-6.80;99.90
22633;DHT22;11483;55.828;37.488;2022-12-07T06:11:04;-6.80;99.90
22633;DHT22;11483;55.828;37.488;2022-12-07T06:13:48;-6.70;99.90
22633;DHT22;11483;55.828;37.488;2022-12-07T06:16:14;-6.70;99.90
22633;DHT22;11483;55.828;37.488;2022-12-07T06:18:40;-6.70;99.90
22633;DHT22;11483;55.828;37.488;2022-12-07T06:21:06;-6.60;99.90
22633;DHT22;11483;55.828;37.488;2022-12-07T06:23:31;-6.70;99.90
22633;DHT22;11483;55.828;37.488;2022-12-07T06:25:57;-6.60;99.90
22633;DHT22;11483;55.828;37.488;2022-12-07T06:28:25;-6.60;99.90
22633;DHT22;11483;55.828;37.488;2022-12-07T06:30:59;-6.60;99.90
22633;DHT22;11483;55.828;37.488;2022-12-07T06:33:26;-6.60;99.90
22633;DHT22;11483;55.828;37.488;2022-12-07T06:35:52;-6.60;99.90
22633;DHT22;11483;55.828;37.488;2022-12-07T06:38:18;-6.60;99.90
22633;DHT22;11483;55.828;37.488;2022-12-07T06:40:44;-6.60;99.90
22633;DHT22;11483;55.828;37.488;2022-12-07T06:43:10;-6.60;99.90
22633;DHT22;11483;55.828;37.488;2022-12-07T06:45:35;-6.60;99.90
22633;DHT22;11483;55.828;37.488;2022-12-07T06:48:01;-6.50;99.90
22633;DHT22;11483;55.828;37.488;2022-12-07T06:50:27;-6.60;99.90
22633;DHT22;11483;55.828;37.488;2022-12-07T06:52:53;-6.60;99.90
22633;DHT22;11483;55.828;37.488;2022-12-07T06:55:19;-6.70;99.90
22633;DHT22;11483;55.828;37.488;2022-12-07T06:57:45;-6.50;99.90
22633;DHT22;11483;55.828;37.488;2022-12-07T07:00:11;-6.50;99.90
22633;DHT22;11483;55.828;37.488;2022-12-07T07:02:37;-6.60;99.90
22633;DHT22;11483;55.828;37.488;2022-12-07T07:05:03;-6.40;99.90
22633;DHT22;11483;55.828;37.488;2022-12-07T07:07:29;-6.40;99.90
22633;DHT22;11483;55.828;37.488;2022-12-07T07:09:55;-6.50;99.90
22633;DHT22;11483;55.828;37.488;2022-12-07T07:12:21;-6.40;99.90
22633;DHT22;11483;55.828;37.488;2022-12-07T07:14:47;-6.50;99.90
22633;DHT22;11483;55.828;37.488;2022-12-07T07:17:13;-6.60;99.90
22633;DHT22;11483;55.828;37.488;2022-12-07T07:19:39;-6.50;99.90
22633;DHT22;11483;55.828;37.488;2022-12-07T07:22:05;-6.60;99.90
22633;DHT22;11483;55.828;37.488;2022-12-07T07:24:31;-6.50;99.90
22633;DHT22;11483;55.828;37.488;2022-12-07T07:26:57;-6.50;99.90
22633;DHT22;11483;55.828;37.488;2022-12-07T07:29:23;-6.40;99.90
22633;DHT22;11483;55.828;37.488;2022-12-07T07:31:49;-6.30;99.90
22633;DHT22;11483;55.828;37.488;2022-12-07T07:34:15;-6.30;99.90
22633;DHT22;11483;55.828;37.488;2022-12-07T07:36:41;-6.30;99.90
22633;DHT22;11483;55.828;37.488;2022-12-07T07:39:07;-6.20;99.90
22633;DHT22;11483;55.828;37.488;2022-12-07T07:41:32;-6.20;99.90
22633;DHT22;11483;55.828;37.488;2022-12-07T07:43:58;-5.90;99.90
22633;DHT22;11483;55.828;37.488;2022-12-07T07:46:24;-4.90;99.90
22633;DHT22;11483;55.828;37.488;2022-12-07T07:48:50;-4.00;99.90
22633;DHT22;11483;55.828;37.488;2022-12-07T07:51:16;-2.80;99.90
22633;DHT22;11483;55.828;37.488;2022-12-07T07:53:41;-1.70;99.90
22633;DHT22;11483;55.828;37.488;2022-12-07T07:56:07;-1.10;99.90
22633;DHT22;11483;55.828;37.488;2022-12-07T07:58:33;-0.50;99.90
22633;DHT22;11483;55.828;37.488;2022-12-07T08:01:06;0.10;99.90
22633;DHT22;11483;55.828;37.488;2022-12-07T08:03:32;0.60;99.90
22633;DHT22;11483;55.828;37.488;2022-12-07T08:05:58;0.90;99.90
22633;DHT22;11483;55.828;37.488;2022-12-07T08:08:24;1.40;99.40
22633;DHT22;11483;55.828;37.488;2022-12-07T08:10:50;1.50;97.70
22633;DHT22;11483;55.828;37.488;2022-12-07T08:13:16;1.90;97.40
22633;DHT22;11483;55.828;37.488;2022-12-07T08:15:44;2.20;94.80
22633;DHT22;11483;55.828;37.488;2022-12-07T08:18:11;2.70;95.70
22633;DHT22;11483;55.828;37.488;2022-12-07T08:20:38;3.20;93.80
22633;DHT22;11483;55.828;37.488;2022-12-07T08:23:05;2.60;91.60
22633;DHT22;11483;55.828;37.488;2022-12-07T08:25:32;2.60;92.60
22633;DHT22;11483;55.828;37.488;2022-12-07T08:27:58;2.20;91.10
22633;DHT22;11483;55.828;37.488;2022-12-07T08:30:25;2.30;91.90
22633;DHT22;11483;55.828;37.488;2022-12-07T08:32:51;2.80;92.30
22633;DHT22;11483;55.828;37.488;2022-12-07T08:35:18;3.30;91.00
22633;DHT22;11483;55.828;37.488;2022-12-07T08:37:43;3.60;89.10
22633;DHT22;11483;55.828;37.488;2022-12-07T08:40:10;3.10;86.80
22633;DHT22;11483;55.828;37.488;2022-12-07T08:42:43;3.20;88.60
22633;DHT22;11483;55.828;37.488;2022-12-07T08:45:14;3.60;86.80
22633;DHT22;11483;55.828;37.488;2022-12-07T08:47:54;2.80;86.90
22633;DHT22;11483;55.828;37.488;2022-12-07T08:50:21;3.00;87.30
22633;DHT22;11483;55.828;37.488;2022-12-07T08:52:52;3.10;86.50
22633;DHT22;11483;55.828;37.488;2022-12-07T08:55:19;2.60;85.40
22633;DHT22;11483;55.828;37.488;2022-12-07T08:57:46;2.80;86.20
22633;DHT22;11483;55.828;37.488;2022-12-07T09:00:12;2.70;85.00
22633;DHT22;11483;55.828;37.488;2022-12-07T09:02:38;2.50;85.70
22633;DHT22;11483;55.828;37.488;2022-12-07T09:05:05;2.60;86.00
22633;DHT22;11483;55.828;37.488;2022-12-07T09:07:32;3.00;87.30
22633;DHT22;11483;55.828;37.488;2022-12-07T09:09:59;3.30;83.20
22633;DHT22;11483;55.828;37.488;2022-12-07T09:12:25;2.80;83.40
22633;DHT22;11483;55.828;37.488;2022-12-07T09:14:51;2.80;85.20
22633;DHT22;11483;55.828;37.488;2022-12-07T09:17:17;3.20;84.20
22633;DHT22;11483;55.828;37.488;2022-12-07T09:19:43;3.20;83.10
22633;DHT22;11483;55.828;37.488;2022-12-07T09:22:09;3.20;83.60
22633;DHT22;11483;55.828;37.488;2022-12-07T09:24:34;3.40;81.80
22633;DHT22;11483;55.828;37.488;2022-12-07T09:27:00;3.20;82.00
22633;DHT22;11483;55.828;37.488;2022-12-07T09:29:26;3.40;81.30
22633;DHT22;11483;55.828;37.488;2022-12-07T09:31:53;3.70;79.00
22633;DHT22;11483;55.828;37.488;2022-12-07T09:34:18;3.10;79.20
22633;DHT22;11483;55.828;37.488;2022-12-07T09:36:46;2.30;80.80
22633;DHT22;11483;55.828;37.488;2022-12-07T09:39:11;2.80;82.40
22633;DHT22;11483;55.828;37.488;2022-12-07T09:41:39;2.90;81.00
22633;DHT22;11483;55.828;37.488;2022-12-07T09:44:17;3.20;80.60
22633;DHT22;11483;55.828;37.488;2022-12-07T09:46:44;3.40;79.30
22633;DHT22;11483;55.828;37.488;2022-12-07T09:49:17;3.30;78.90
22633;DHT22;11483;55.828;37.488;2022-12-07T09:51:45;3.00;78.10
22633;DHT22;11483;55.828;37.488;2022-12-07T09:54:16;2.70;79.50
22633;DHT22;11483;55.828;37.488;2022-12-07T09:56:43;2.80;79.80
22633;DHT22;11483;55.828;37.488;2022-12-07T09:59:16;3.00;78.60
22633;DHT22;11483;55.828;37.488;2022-12-07T10:01:44;2.70;78.90
22633;DHT22;11483;55.828;37.488;2022-12-07T10:04:18;2.40;79.50
22633;DHT22;11483;55.828;37.488;2022-12-07T10:06:44;2.50;79.40
22633;DHT22;11483;55.828;37.488;2022-12-07T10:09:16;2.30;79.90
22633;DHT22;11483;55.828;37.488;2022-12-07T10:12:00;2.30;79.60
22633;DHT22;11483;55.828;37.488;2022-12-07T10:14:28;2.30;80.10
22633;DHT22;11483;55.828;37.488;2022-12-07T10:16:55;1.90;79.50
22633;DHT22;11483;55.828;37.488;2022-12-07T10:19:27;2.10;80.00
22633;DHT22;11483;55.828;37.488;2022-12-07T10:22:11;2.60;79.90
22633;DHT22;11483;55.828;37.488;2022-12-07T10:24:38;2.60;78.50
22633;DHT22;11483;55.828;37.488;2022-12-07T10:29:51;1.90;79.60
22633;DHT22;11483;55.828;37.488;2022-12-07T10:34:43;2.00;79.30
22633;DHT22;11483;55.828;37.488;2022-12-07T10:39:50;1.70;79.70
22633;DHT22;11483;55.828;37.488;2022-12-07T10:42:23;1.70;79.30
22633;DHT22;11483;55.828;37.488;2022-12-07T10:45:36;2.30;80.50
22633;DHT22;11483;55.828;37.488;2022-12-07T11:07:01;1.70;79.60
22633;DHT22;11483;55.828;37.488;2022-12-07T11:15:18;1.20;79.60
22633;DHT22;11483;55.828;37.488;2022-12-07T11:34:43;2.00;79.90
22633;DHT22;11483;55.828;37.488;2022-12-07T11:37:17;2.00;79.50
22633;DHT22;11483;55.828;37.488;2022-12-07T11:39:51;1.60;80.10
22633;DHT22;11483;55.828;37.488;2022-12-07T11:42:41;1.30;81.00
22633;DHT22;11483;55.828;37.488;2022-12-07T11:45:25;1.10;81.60
22633;DHT22;11483;55.828;37.488;2022-12-07T11:50:46;0.70;82.80
22633;DHT22;11483;55.828;37.488;2022-12-07T11:53:38;0.50;83.10
22633;DHT22;11483;55.828;37.488;2022-12-07T11:56:15;0.10;83.60
22633;DHT22;11483;55.828;37.488;2022-12-07T12:01:42;-0.60;85.60
22633;DHT22;11483;55.828;37.488;2022-12-07T12:06:40;-0.90;87.00
22633;DHT22;11483;55.828;37.488;2022-12-07T12:11:48;-1.10;87.30
22633;DHT22;11483;55.828;37.488;2022-12-07T12:17:10;-1.70;89.30
22633;DHT22;11483;55.828;37.488;2022-12-07T12:22:15;-2.30;90.90
22633;DHT22;11483;55.828;37.488;2022-12-07T12:24:43;-2.40;91.40
22633;DHT22;11483;55.828;37.488;2022-12-07T12:27:25;-2.60;91.50
22633;DHT22;11483;55.828;37.488;2022-12-07T12:29:54;-3.00;92.10
22633;DHT22;11483;55.828;37.488;2022-12-07T12:32:24;-3.20;92.80
22633;DHT22;11483;55.828;37.488;2022-12-07T12:35:01;-3.30;93.20
22633;DHT22;11483;55.828;37.488;2022-12-07T12:45:24;-4.40;95.70
22633;DHT22;11483;55.828;37.488;2022-12-07T12:47:59;-4.80;97.30
22633;DHT22;11483;55.828;37.488;2022-12-07T12:52:55;-5.40;99.90
22633;DHT22;11483;55.828;37.488;2022-12-07T12:55:44;-5.60;99.90
22633;DHT22;11483;55.828;37.488;2022-12-07T13:03:35;-6.10;99.90
22633;DHT22;11483;55.828;37.488;2022-12-07T13:06:30;-6.10;99.90
22633;DHT22;11483;55.828;37.488;2022-12-07T13:09:00;-6.10;99.90
22633;DHT22;11483;55.828;37.488;2022-12-07T13:11:29;-6.30;99.90
22633;DHT22;11483;55.828;37.488;2022-12-07T13:17:11;-6.60;99.90
22633;DHT22;11483;55.828;37.488;2022-12-07T13:25:21;-6.60;99.90
22633;DHT22;11483;55.828;37.488;2022-12-07T13:28:23;-6.70;99.90
22633;DHT22;11483;55.828;37.488;2022-12-07T13:33:37;-6.70;99.90
22633;DHT22;11483;55.828;37.488;2022-12-07T13:36:04;-6.70;99.90
22633;DHT22;11483;55.828;37.488;2022-12-07T13:38:33;-6.80;99.90
22633;DHT22;11483;55.828;37.488;2022-12-07T13:41:03;-6.90;99.90
22633;DHT22;11483;55.828;37.488;2022-12-07T13:43:29;-6.80;99.90
22633;DHT22;11483;55.828;37.488;2022-12-07T13:45:58;-6.80;99.90
22633;DHT22;11483;55.828;37.488;2022-12-07T13:48:45;-6.90;99.90
22633;DHT22;11483;55.828;37.488;2022-12-07T13:51:25;-6.90;99.90
22633;DHT22;11483;55.828;37.488;2022-12-07T13:54:11;-7.00;99.90
22633;DHT22;11483;55.828;37.488;2022-12-07T13:56:38;-7.00;99.90
22633;DHT22;11483;55.828;37.488;2022-12-07T13:59:19;-7.00;99.90
22633;DHT22;11483;55.828;37.488;2022-12-07T14:01:47;-7.10;99.90
22633;DHT22;11483;55.828;37.488;2022-12-07T14:04:36;-7.10;99.90
22633;DHT22;11483;55.828;37.488;2022-12-07T14:07:54;-7.10;99.90
22633;DHT22;11483;55.828;37.488;2022-12-07T14:10:55;-7.10;99.90
22633;DHT22;11483;55.828;37.488;2022-12-07T14:16:00;-7.10;99.90
22633;DHT22;11483;55.828;37.488;2022-12-07T14:18:29;-7.00;99.90
22633;DHT22;11483;55.828;37.488;2022-12-07T14:21:06;-7.00;99.90
22633;DHT22;11483;55.828;37.488;2022-12-07T14:23:40;-7.10;99.90
22633;DHT22;11483;55.828;37.488;2022-12-07T14:26:19;-7.20;99.90
22633;DHT22;11483;55.828;37.488;2022-12-07T14:28:46;-7.10;99.90
22633;DHT22;11483;55.828;37.488;2022-12-07T14:31:15;-7.10;99.90
22633;DHT22;11483;55.828;37.488;2022-12-07T14:33:42;-7.20;99.90
22633;DHT22;11483;55.828;37.488;2022-12-07T14:36:12;-7.20;99.90
22633;DHT22;11483;55.828;37.488;2022-12-07T14:38:39;-7.20;99.90
22633;DHT22;11483;55.828;37.488;2022-12-07T14:41:12;-7.10;99.90
22633;DHT22;11483;55.828;37.488;2022-12-07T14:43:58;-7.20;99.90
22633;DHT22;11483;55.828;37.488;2022-12-07T14:46:24;-7.30;99.90
22633;DHT22;11483;55.828;37.488;2022-12-07T14:48:50;-7.30;99.90
22633;DHT22;11483;55.828;37.488;2022-12-07T14:51:16;-7.30;99.90
22633;DHT22;11483;55.828;37.488;2022-12-07T14:53:48;-7.30;99.90
22633;DHT22;11483;55.828;37.488;2022-12-07T14:56:16;-7.30;99.90
22633;DHT22;11483;55.828;37.488;2022-12-07T14:58:41;-7.30;99.90
22633;DHT22;11483;55.828;37.488;2022-12-07T15:01:07;-7.30;99.90
22633;DHT22;11483;55.828;37.488;2022-12-07T15:03:33;-7.30;99.90
22633;DHT22;11483;55.828;37.488;2022-12-07T15:06:07;-7.40;99.90
22633;DHT22;11483;55.828;37.488;2022-12-07T15:08:33;-7.30;99.90
22633;DHT22;11483;55.828;37.488;2022-12-07T15:10:59;-7.40;99.90
22633;DHT22;11483;55.828;37.488;2022-12-07T15:13:25;-7.40;99.90
22633;DHT22;11483;55.828;37.488;2022-12-07T15:16:11;-7.40;99.90
22633;DHT22;11483;55.828;37.488;2022-12-07T15:18:38;-7.40;99.90
22633;DHT22;11483;55.828;37.488;2022-12-07T15:21:04;-7.40;99.90
22633;DHT22;11483;55.828;37.488;2022-12-07T15:23:30;-7.40;99.90
22633;DHT22;11483;55.828;37.488;2022-12-07T15:25:57;-7.40;99.90
22633;DHT22;11483;55.828;37.488;2022-12-07T15:28:23;-7.40;99.90
22633;DHT22;11483;55.828;37.488;2022-12-07T15:30:48;-7.40;99.90
22633;DHT22;11483;55.828;37.488;2022-12-07T15:33:14;-7.50;99.90
22633;DHT22;11483;55.828;37.488;2022-12-07T15:35:41;-7.50;99.90
22633;DHT22;11483;55.828;37.488;2022-12-07T15:38:08;-7.40;99.90
22633;DHT22;11483;55.828;37.488;2022-12-07T15:40:34;-7.40;99.90
22633;DHT22;11483;55.828;37.488;2022-12-07T15:43:01;-7.50;99.90
22633;DHT22;11483;55.828;37.488;2022-12-07T15:45:26;-7.40;99.90
22633;DHT22;11483;55.828;37.488;2022-12-07T15:47:52;-7.50;99.90
22633;DHT22;11483;55.828;37.488;2022-12-07T15:50:21;-7.50;99.90
22633;DHT22;11483;55.828;37.488;2022-12-07T15:52:47;-7.50;99.90
22633;DHT22;11483;55.828;37.488;2022-12-07T15:55:13;-7.50;99.90
22633;DHT22;11483;55.828;37.488;2022-12-07T15:57:40;-7.50;99.90
22633;DHT22;11483;55.828;37.488;2022-12-07T16:00:07;-7.50;99.90
22633;DHT22;11483;55.828;37.488;2022-12-07T16:02:37;-7.50;99.90
22633;DHT22;11483;55.828;37.488;2022-12-07T16:05:03;-7.50;99.90
22633;DHT22;11483;55.828;37.488;2022-12-07T16:07:29;-7.50;99.90
22633;DHT22;11483;55.828;37.488;2022-12-07T16:09:55;-7.50;99.90
22633;DHT22;11483;55.828;37.488;2022-12-07T16:12:21;-7.50;99.90
22633;DHT22;11483;55.828;37.488;2022-12-07T16:14:47;-7.50;99.90
22633;DHT22;11483;55.828;37.488;2022-12-07T16:17:13;-7.60;99.90
22633;DHT22;11483;55.828;37.488;2022-12-07T16:19:39;-7.60;99.90
22633;DHT22;11483;55.828;37.488;2022-12-07T16:22:05;-7.50;99.90
22633;DHT22;11483;55.828;37.488;2022-12-07T16:24:31;-7.50;99.90
22633;DHT22;11483;55.828;37.488;2022-12-07T16:26:57;-7.50;99.90
22633;DHT22;11483;55.828;37.488;2022-12-07T16:29:23;-7.50;99.90
22633;DHT22;11483;55.828;37.488;2022-12-07T16:31:52;-7.50;99.90
22633;DHT22;11483;55.828;37.488;2022-12-07T16:34:19;-7.60;99.90
22633;DHT22;11483;55.828;37.488;2022-12-07T16:36:45;-7.50;99.90
22633;DHT22;11483;55.828;37.488;2022-12-07T16:39:11;-7.50;99.90
22633;DHT22;11483;55.828;37.488;2022-12-07T16:41:37;-7.60;99.90
22633;DHT22;11483;55.828;37.488;2022-12-07T16:44:05;-7.50;99.90
22633;DHT22;11483;55.828;37.488;2022-12-07T16:46:35;-7.50;99.90
22633;DHT22;11483;55.828;37.488;2022-12-07T16:49:02;-7.50;99.90
22633;DHT22;11483;55.828;37.488;2022-12-07T16:51:28;-7.50;99.90
22633;DHT22;11483;55.828;37.488;2022-12-07T16:53:54;-7.40;99.90
22633;DHT22;11483;55.828;37.488;2022-12-07T16:56:20;-7.50;99.90
22633;DHT22;11483;55.828;37.488;2022-12-07T16:58:46;-7.50;99.90
22633;DHT22;11483;55.828;37.488;2022-12-07T17:01:19;-7.50;99.90
22633;DHT22;11483;55.828;37.488;2022-12-07T17:03:46;-7.60;99.90
22633;DHT22;11483;55.828;37.488;2022-12-07T17:06:21;-7.60;99.90
22633;DHT22;11483;55.828;37.488;2022-12-07T17:08:48;-7.50;99.90
22633;DHT22;11483;55.828;37.488;2022-12-07T17:11:16;-7.60;99.90
22633;DHT22;11483;55.828;37.488;2022-12-07T17:13:43;-7.50;99.90
22633;DHT22;11483;55.828;37.488;2022-12-07T17:16:28;-7.50;99.90
22633;DHT22;11483;55.828;37.488;2022-12-07T17:18:54;-7.60;99.90
22633;DHT22;11483;55.828;37.488;2022-12-07T17:21:21;-7.60;99.90
22633;DHT22;11483;55.828;37.488;2022-12-07T17:23:47;-7.50;99.90
22633;DHT22;11483;55.828;37.488;2022-12-07T17:26:16;-7.50;99.90
22633;DHT22;11483;55.828;37.488;2022-12-07T17:28:43;-7.50;99.90
22633;DHT22;11483;55.828;37.488;2022-12-07T17:31:10;-7.60;99.90
22633;DHT22;11483;55.828;37.488;2022-12-07T17:33:37;-7.60;99.90
22633;DHT22;11483;55.828;37.488;2022-12-07T17:36:14;-7.60;99.90
22633;DHT22;11483;55.828;37.488;2022-12-07T17:38:40;-7.50;99.90
22633;DHT22;11483;55.828;37.488;2022-12-07T17:41:14;-7.60;99.90
22633;DHT22;11483;55.828;37.488;2022-12-07T17:44:00;-7.60;99.90